createdAt,value
2023-05-14T00:00:28.043Z,938.19
2023-05-14T00:01:28.170Z,938.17
2023-05-14T00:02:28.376Z,938.20
2023-05-14T00:03:28.214Z,938.23
2023-05-14T00:04:28.121Z,938.25
2023-05-14T00:05:28.098Z,938.25
2023-05-14T00:06:28.106Z,938.23
2023-05-14T00:07:28.125Z,938.28
2023-05-14T00:08:28.241Z,938.29
2023-05-14T00:09:28.159Z,938.31
2023-05-14T00:10:28.366Z,938.32
2023-05-14T00:11:28.213Z,938.31
2023-05-14T00:12:28.195Z,938.31
2023-05-14T00:13:28.210Z,938.34
2023-05-14T00:14:28.224Z,938.31
2023-05-14T00:15:28.236Z,938.32
2023-05-14T00:16:28.309Z,938.28
2023-05-14T00:17:28.282Z,938.26
2023-05-14T00:18:28.274Z,938.27
2023-05-14T00:19:28.281Z,938.29
2023-05-14T00:20:28.396Z,938.30
2023-05-14T00:21:28.318Z,938.29
2023-05-14T00:22:28.310Z,938.29
2023-05-14T00:23:28.327Z,938.32
2023-05-14T00:24:28.342Z,938.33
2023-05-14T00:25:28.357Z,938.32
2023-05-14T00:26:28.469Z,938.35
2023-05-14T00:27:28.387Z,938.33
2023-05-14T00:28:28.399Z,938.36
2023-05-14T00:29:28.408Z,938.36
2023-05-14T00:30:28.418Z,938.31
2023-05-14T00:31:28.605Z,938.34
2023-05-14T00:32:28.537Z,938.30
2023-05-14T00:33:28.481Z,938.35
2023-05-14T00:34:28.477Z,938.35
2023-05-14T00:35:28.511Z,938.32
2023-05-14T00:36:28.500Z,938.35
2023-05-14T00:37:28.613Z,938.32
2023-05-14T00:38:28.526Z,938.34
2023-05-14T00:39:28.531Z,938.34
2023-05-14T00:40:28.548Z,938.33
2023-05-14T00:41:28.553Z,938.36
2023-05-14T00:42:28.575Z,938.39
2023-05-14T00:43:28.677Z,938.34
2023-05-14T00:44:28.624Z,938.29
2023-05-14T00:45:28.610Z,938.36
2023-05-14T00:46:28.702Z,938.34
2023-05-14T00:47:28.671Z,938.32
2023-05-14T00:48:28.644Z,938.35
2023-05-14T00:49:28.783Z,938.32
2023-05-14T00:50:28.690Z,938.30
2023-05-14T00:51:28.685Z,938.32
2023-05-14T00:52:28.708Z,938.34
2023-05-14T00:53:28.704Z,938.32
2023-05-14T00:54:28.720Z,938.34
2023-05-14T00:55:28.837Z,938.32
2023-05-14T00:56:28.753Z,938.29
2023-05-14T00:57:28.759Z,938.31
2023-05-14T00:58:28.780Z,938.30
2023-05-14T00:59:28.799Z,938.30
2023-05-14T01:00:28.803Z,938.29
2023-05-14T01:01:28.921Z,938.25
2023-05-14T01:02:28.900Z,938.25
2023-05-14T01:03:28.979Z,938.25
2023-05-14T01:04:28.849Z,938.30
2023-05-14T01:05:28.888Z,938.26
2023-05-14T01:06:28.880Z,938.25
2023-05-14T01:07:28.986Z,938.24
2023-05-14T01:08:28.895Z,938.26
2023-05-14T01:09:28.917Z,938.27
2023-05-14T01:10:28.944Z,938.27
2023-05-14T01:11:28.944Z,938.25
2023-05-14T01:12:28.957Z,938.23
2023-05-14T01:13:28.962Z,938.26
2023-05-14T01:14:28.979Z,938.22
2023-05-14T01:15:29.018Z,938.21
2023-05-14T01:16:29.104Z,938.23
2023-05-14T01:17:29.027Z,938.23
2023-05-14T01:18:29.091Z,938.23
2023-05-14T01:19:29.139Z,938.27
2023-05-14T01:20:29.057Z,938.28
2023-05-14T01:21:29.093Z,938.28
2023-05-14T01:22:29.077Z,938.31
2023-05-14T01:23:29.088Z,938.28
2023-05-14T01:24:29.101Z,938.32
2023-05-14T01:25:29.244Z,938.32
2023-05-14T01:26:29.133Z,938.24
2023-05-14T01:27:29.135Z,938.26
2023-05-14T01:28:29.161Z,938.24
2023-05-14T01:29:29.174Z,938.24
2023-05-14T01:30:29.187Z,938.26
2023-05-14T01:31:29.336Z,938.27
2023-05-14T01:32:29.272Z,938.28
2023-05-14T01:33:29.237Z,938.26
2023-05-14T01:34:29.228Z,938.26
2023-05-14T01:35:29.243Z,938.27
2023-05-14T01:36:29.267Z,938.22
2023-05-14T01:37:29.384Z,938.25
2023-05-14T01:38:29.276Z,938.19
2023-05-14T01:39:29.298Z,938.20
2023-05-14T01:40:29.308Z,938.21
2023-05-14T01:41:29.323Z,938.22
2023-05-14T01:42:29.333Z,938.19
2023-05-14T01:43:29.590Z,938.21
2023-05-14T01:44:29.360Z,938.26
2023-05-14T01:45:29.374Z,938.23
2023-05-14T01:46:29.462Z,938.26
2023-05-14T01:47:29.434Z,938.25
2023-05-14T01:48:29.402Z,938.30
2023-05-14T01:49:29.547Z,938.34
2023-05-14T01:50:29.432Z,938.31
2023-05-14T01:51:29.443Z,938.35
2023-05-14T01:52:29.453Z,938.32
2023-05-14T01:53:29.515Z,938.33
2023-05-14T01:54:29.515Z,938.38
2023-05-14T01:55:29.587Z,938.36
2023-05-14T01:56:29.546Z,938.37
2023-05-14T01:57:29.532Z,938.35
2023-05-14T01:58:29.537Z,938.38
2023-05-14T01:59:29.539Z,938.36
2023-05-14T02:00:29.655Z,938.38
2023-05-14T02:01:29.619Z,938.38
2023-05-14T02:02:29.651Z,938.38
2023-05-14T02:03:29.602Z,938.35
2023-05-14T02:04:29.612Z,938.33
2023-05-14T02:05:29.637Z,938.35
2023-05-14T02:06:29.731Z,938.29
2023-05-14T02:07:29.645Z,938.28
2023-05-14T02:08:29.659Z,938.31
2023-05-14T02:09:29.771Z,938.31
2023-05-14T02:10:29.684Z,938.28
2023-05-14T02:11:29.694Z,938.32
2023-05-14T02:12:29.816Z,938.32
2023-05-14T02:13:29.726Z,938.33
2023-05-14T02:14:29.741Z,938.30
2023-05-14T02:15:29.745Z,938.29
2023-05-14T02:16:29.837Z,938.31
2023-05-14T02:17:29.790Z,938.31
2023-05-14T02:18:29.932Z,938.29
2023-05-14T02:19:29.803Z,938.30
2023-05-14T02:20:29.816Z,938.33
2023-05-14T02:21:29.828Z,938.31
2023-05-14T02:22:29.840Z,938.29
2023-05-14T02:23:40.361Z,938.31
2023-05-14T02:24:29.867Z,938.29
2023-05-14T02:25:29.905Z,938.30
2023-05-14T02:26:29.901Z,938.32
2023-05-14T02:27:29.908Z,938.32
2023-05-14T02:28:29.914Z,938.30
2023-05-14T02:29:30.042Z,938.33
2023-05-14T02:30:29.943Z,938.31
2023-05-14T02:31:29.996Z,938.32
2023-05-14T02:32:30.036Z,938.30
2023-05-14T02:33:30.079Z,938.32
2023-05-14T02:34:29.984Z,938.29
2023-05-14T02:35:30.110Z,938.32
2023-05-14T02:36:30.022Z,938.31
2023-05-14T02:37:30.027Z,938.30
2023-05-14T02:38:30.038Z,938.25
2023-05-14T02:39:30.052Z,938.21
2023-05-14T02:40:30.069Z,938.24
2023-05-14T02:41:30.197Z,938.23
2023-05-14T02:42:30.096Z,938.20
2023-05-14T02:43:30.137Z,938.19
2023-05-14T02:44:30.126Z,938.21
2023-05-14T02:45:30.127Z,938.19
2023-05-14T02:46:30.190Z,938.18
2023-05-14T02:47:30.271Z,938.22
2023-05-14T02:48:30.183Z,938.20
2023-05-14T02:49:30.186Z,938.20
2023-05-14T02:50:30.191Z,938.20
2023-05-14T02:51:30.202Z,938.19
2023-05-14T02:52:30.222Z,938.23
2023-05-14T02:53:30.327Z,938.20
2023-05-14T02:54:30.248Z,938.17
2023-05-14T02:55:30.262Z,938.20
2023-05-14T02:56:30.274Z,938.20
2023-05-14T02:57:30.343Z,938.18
2023-05-14T02:58:30.304Z,938.25
2023-05-14T02:59:30.423Z,938.25
2023-05-14T03:00:30.320Z,938.23
2023-05-14T03:01:30.382Z,938.20
2023-05-14T03:02:30.480Z,938.23
2023-05-14T03:03:30.397Z,938.21
2023-05-14T03:04:30.476Z,938.19
2023-05-14T03:05:30.392Z,938.21
2023-05-14T03:06:30.396Z,938.16
2023-05-14T03:07:30.410Z,938.13
2023-05-14T03:08:30.419Z,938.11
2023-05-14T03:09:30.439Z,938.14
2023-05-14T03:10:30.550Z,938.13
2023-05-14T03:11:30.469Z,938.15
2023-05-14T03:12:30.482Z,938.15
2023-05-14T03:13:30.513Z,938.11
2023-05-14T03:14:30.495Z,938.11
2023-05-14T03:15:30.608Z,938.12
2023-05-14T03:16:30.542Z,938.06
2023-05-14T03:17:30.591Z,938.07
2023-05-14T03:18:30.592Z,938.10
2023-05-14T03:19:30.559Z,938.10
2023-05-14T03:20:30.669Z,938.11
2023-05-14T03:21:30.582Z,938.08
2023-05-14T03:22:30.602Z,938.09
2023-05-14T03:23:30.626Z,938.05
2023-05-14T03:24:30.619Z,938.07
2023-05-14T03:25:30.649Z,938.07
2023-05-14T03:26:30.746Z,938.07
2023-05-14T03:27:30.665Z,938.00
2023-05-14T03:28:30.684Z,938.06
2023-05-14T03:29:30.705Z,938.02
2023-05-14T03:30:30.714Z,937.99
2023-05-14T03:31:30.817Z,937.99
2023-05-14T03:32:30.739Z,937.95
2023-05-14T03:33:30.737Z,937.91
2023-05-14T03:34:30.752Z,937.90
2023-05-14T03:35:30.769Z,937.93
2023-05-14T03:36:30.771Z,937.98
2023-05-14T03:37:30.898Z,937.98
2023-05-14T03:38:30.801Z,937.98
2023-05-14T03:39:30.816Z,937.96
2023-05-14T03:40:30.855Z,937.96
2023-05-14T03:41:30.835Z,937.95
2023-05-14T03:42:30.851Z,937.95
2023-05-14T03:43:30.981Z,937.92
2023-05-14T03:44:30.878Z,937.90
2023-05-14T03:45:30.907Z,937.90
2023-05-14T03:46:30.900Z,937.91
2023-05-14T03:47:30.965Z,937.90
2023-05-14T03:48:31.003Z,937.91
2023-05-14T03:49:31.046Z,937.90
2023-05-14T03:50:30.950Z,937.93
2023-05-14T03:51:30.968Z,937.93
2023-05-14T03:52:30.972Z,937.95
2023-05-14T03:53:30.993Z,937.97
2023-05-14T03:54:31.016Z,937.93
2023-05-14T03:55:31.121Z,937.93
2023-05-14T03:56:31.022Z,937.93
2023-05-14T03:57:31.046Z,937.90
2023-05-14T03:58:31.056Z,937.92
2023-05-14T03:59:31.067Z,937.89
2023-05-14T04:00:31.079Z,937.89
2023-05-14T04:01:31.202Z,937.89
2023-05-14T04:02:31.190Z,937.91
2023-05-14T04:03:31.364Z,937.91
2023-05-14T04:04:31.164Z,937.90
2023-05-14T04:05:31.140Z,937.90
2023-05-14T04:06:31.151Z,937.93
2023-05-14T04:07:31.262Z,937.93
2023-05-14T04:08:31.173Z,937.94
2023-05-14T04:09:31.193Z,937.95
2023-05-14T04:10:31.205Z,937.91
2023-05-14T04:11:31.218Z,937.90
2023-05-14T04:12:31.223Z,937.84
2023-05-14T04:13:31.239Z,937.83
2023-05-14T04:14:31.255Z,937.86
2023-05-14T04:15:31.290Z,937.83
2023-05-14T04:16:31.307Z,937.84
2023-05-14T04:17:31.332Z,937.83
2023-05-14T04:18:31.332Z,937.84
2023-05-14T04:19:31.325Z,937.81
2023-05-14T04:20:31.323Z,937.80
2023-05-14T04:21:31.344Z,937.81
2023-05-14T04:22:31.370Z,937.81
2023-05-14T04:23:31.485Z,937.79
2023-05-14T04:24:31.392Z,937.79
2023-05-14T04:25:31.393Z,937.77
2023-05-14T04:26:31.410Z,937.75
2023-05-14T04:27:31.415Z,937.77
2023-05-14T04:28:31.524Z,937.78
2023-05-14T04:29:31.445Z,937.77
2023-05-14T04:30:31.454Z,937.78
2023-05-14T04:31:31.483Z,937.77
2023-05-14T04:32:31.568Z,937.72
2023-05-14T04:33:31.516Z,937.72
2023-05-14T04:34:31.595Z,937.68
2023-05-14T04:35:31.509Z,937.66
2023-05-14T04:36:31.528Z,937.65
2023-05-14T04:37:31.541Z,937.70
2023-05-14T04:38:31.553Z,937.70
2023-05-14T04:39:31.666Z,937.72
2023-05-14T04:40:31.568Z,937.64
2023-05-14T04:41:31.591Z,937.61
2023-05-14T04:42:31.595Z,937.58
2023-05-14T04:43:31.608Z,937.59
2023-05-14T04:44:31.734Z,937.57
2023-05-14T04:45:34.046Z,937.57
2023-05-14T04:46:31.768Z,937.57
2023-05-14T04:47:31.705Z,937.57
2023-05-14T04:48:31.669Z,937.56
2023-05-14T04:49:31.711Z,937.57
2023-05-14T04:50:31.825Z,937.54
2023-05-14T04:51:31.721Z,937.51
2023-05-14T04:52:31.735Z,937.50
2023-05-14T04:53:31.728Z,937.45
2023-05-14T04:54:31.791Z,937.46
2023-05-14T04:55:31.872Z,937.48
2023-05-14T04:56:31.777Z,937.47
2023-05-14T04:57:31.787Z,937.45
2023-05-14T04:58:34.527Z,937.45
2023-05-14T04:59:31.815Z,937.46
2023-05-14T05:00:31.826Z,937.45
2023-05-14T05:01:32.052Z,937.49
2023-05-14T05:02:31.861Z,937.48
2023-05-14T05:03:31.880Z,937.51
2023-05-14T05:04:31.870Z,937.49
2023-05-14T05:05:31.916Z,937.47
2023-05-14T05:06:31.909Z,937.46
2023-05-14T05:07:31.938Z,937.42
2023-05-14T05:08:31.925Z,937.43
2023-05-14T05:09:31.948Z,937.44
2023-05-14T05:10:31.952Z,937.45
2023-05-14T05:11:31.981Z,937.44
2023-05-14T05:12:32.085Z,937.45
2023-05-14T05:13:31.991Z,937.51
2023-05-14T05:14:32.003Z,937.50
2023-05-14T05:15:32.020Z,937.51
2023-05-14T05:16:32.155Z,937.52
2023-05-14T05:17:32.071Z,937.51
2023-05-14T05:18:32.198Z,937.51
2023-05-14T05:19:42.560Z,937.47
2023-05-14T05:20:32.083Z,937.53
2023-05-14T05:21:32.115Z,937.51
2023-05-14T05:22:32.120Z,937.49
2023-05-14T05:23:32.115Z,937.46
2023-05-14T05:24:32.226Z,937.43
2023-05-14T05:25:32.161Z,937.43
2023-05-14T05:26:32.161Z,937.46
2023-05-14T05:27:32.166Z,937.42
2023-05-14T05:28:32.184Z,937.40
2023-05-14T05:29:32.193Z,937.41
2023-05-14T05:30:32.311Z,937.42
2023-05-14T05:31:32.238Z,937.36
2023-05-14T05:32:32.245Z,937.33
2023-05-14T05:33:32.258Z,937.31
2023-05-14T05:34:32.267Z,937.31
2023-05-14T05:35:32.369Z,937.29
2023-05-14T05:36:32.288Z,937.24
2023-05-14T05:37:32.309Z,937.30
2023-05-14T05:38:32.308Z,937.22
2023-05-14T05:39:32.313Z,937.25
2023-05-14T05:40:32.334Z,937.27
2023-05-14T05:41:32.336Z,937.25
2023-05-14T05:42:32.356Z,937.25
2023-05-14T05:43:32.363Z,937.22
2023-05-14T05:44:32.380Z,937.23
2023-05-14T05:45:32.389Z,937.24
2023-05-14T05:46:32.568Z,937.25
2023-05-14T05:47:32.455Z,937.22
2023-05-14T05:48:32.432Z,937.20
2023-05-14T05:49:32.435Z,937.25
2023-05-14T05:50:32.460Z,937.25
2023-05-14T05:51:32.469Z,937.22
2023-05-14T05:52:32.493Z,937.18
2023-05-14T05:53:32.531Z,937.15
2023-05-14T05:54:32.526Z,937.16
2023-05-14T05:55:32.512Z,937.14
2023-05-14T05:56:32.530Z,937.16
2023-05-14T05:57:32.561Z,937.13
2023-05-14T05:58:32.647Z,937.15
2023-05-14T05:59:32.575Z,937.14
2023-05-14T06:00:32.573Z,937.17
2023-05-14T06:01:32.587Z,937.19
2023-05-14T06:02:32.684Z,937.15
2023-05-14T06:03:32.612Z,937.14
2023-05-14T06:04:32.729Z,937.15
2023-05-14T06:05:32.685Z,937.10
2023-05-14T06:06:32.692Z,937.10
2023-05-14T06:07:32.663Z,937.08
2023-05-14T06:08:32.679Z,937.13
2023-05-14T06:09:32.814Z,937.09
2023-05-14T06:10:32.706Z,937.08
2023-05-14T06:11:32.717Z,937.04
2023-05-14T06:12:32.726Z,937.05
2023-05-14T06:13:32.744Z,937.06
2023-05-14T06:14:32.756Z,937.08
2023-05-14T06:15:32.889Z,937.08
2023-05-14T06:16:32.832Z,937.08
2023-05-14T06:17:32.845Z,937.10
2023-05-14T06:18:32.828Z,937.10
2023-05-14T06:19:32.822Z,937.08
2023-05-14T06:20:32.925Z,937.15
2023-05-14T06:21:32.845Z,937.14
2023-05-14T06:22:32.848Z,937.11
2023-05-14T06:23:32.877Z,937.13
2023-05-14T06:24:32.881Z,937.13
2023-05-14T06:25:32.913Z,937.12
2023-05-14T06:26:32.899Z,937.13
2023-05-14T06:27:32.921Z,937.13
2023-05-14T06:28:32.945Z,937.15
2023-05-14T06:29:32.947Z,937.14
2023-05-14T06:30:32.955Z,937.13
2023-05-14T06:31:33.019Z,937.12
2023-05-14T06:32:33.083Z,937.09
2023-05-14T06:33:32.997Z,937.10
2023-05-14T06:34:33.003Z,937.07
2023-05-14T06:35:33.010Z,937.11
2023-05-14T06:36:33.027Z,937.04
2023-05-14T06:37:33.038Z,937.05
2023-05-14T06:38:33.071Z,937.06
2023-05-14T06:39:33.062Z,937.01
2023-05-14T06:40:33.080Z,937.05
2023-05-14T06:41:33.113Z,937.04
2023-05-14T06:42:33.108Z,937.07
2023-05-14T06:43:33.220Z,937.10
2023-05-14T06:44:33.126Z,937.08
2023-05-14T06:45:33.353Z,937.09
2023-05-14T06:46:33.156Z,937.12
2023-05-14T06:47:33.196Z,937.12
2023-05-14T06:48:33.238Z,937.09
2023-05-14T06:49:33.305Z,937.11
2023-05-14T06:50:33.193Z,937.11
2023-05-14T06:51:33.218Z,937.08
2023-05-14T06:52:33.218Z,937.10
2023-05-14T06:53:33.239Z,937.07
2023-05-14T06:54:33.455Z,937.07
2023-05-14T06:55:33.272Z,937.05
2023-05-14T06:56:33.275Z,937.08
2023-05-14T06:57:33.313Z,937.01
2023-05-14T06:58:33.302Z,937.01
2023-05-14T06:59:33.340Z,936.99
2023-05-14T07:00:33.328Z,936.96
2023-05-14T07:01:33.397Z,936.95
2023-05-14T07:02:33.375Z,936.93
2023-05-14T07:03:33.364Z,936.92
2023-05-14T07:04:33.392Z,936.93
2023-05-14T07:05:33.392Z,936.91
2023-05-14T07:06:33.406Z,936.89
2023-05-14T07:07:33.511Z,936.91
2023-05-14T07:08:33.426Z,936.87
2023-05-14T07:09:33.437Z,936.84
2023-05-14T07:10:33.454Z,936.88
2023-05-14T07:11:33.461Z,936.83
2023-05-14T07:12:33.568Z,936.84
2023-05-14T07:13:33.506Z,936.84
2023-05-14T07:14:33.496Z,936.82
2023-05-14T07:15:33.506Z,936.87
2023-05-14T07:16:33.544Z,936.83
2023-05-14T07:17:33.594Z,936.87
2023-05-14T07:18:33.710Z,936.90
2023-05-14T07:19:33.556Z,936.95
2023-05-14T07:20:33.573Z,936.93
2023-05-14T07:21:33.586Z,936.93
2023-05-14T07:22:33.600Z,936.95
2023-05-14T07:23:33.705Z,936.91
2023-05-14T07:24:33.617Z,936.93
2023-05-14T07:25:33.640Z,936.97
2023-05-14T07:26:33.648Z,937.01
2023-05-14T07:27:33.661Z,937.00
2023-05-14T07:28:33.673Z,936.99
2023-05-14T07:29:33.804Z,937.02
2023-05-14T07:30:33.698Z,936.99
2023-05-14T07:31:33.734Z,936.99
2023-05-14T07:32:33.788Z,937.02
2023-05-14T07:33:33.739Z,937.01
2023-05-14T07:34:33.748Z,937.00
2023-05-14T07:35:33.768Z,937.10
2023-05-14T07:36:33.769Z,937.06
2023-05-14T07:37:33.785Z,937.10
2023-05-14T07:38:33.789Z,937.10
2023-05-14T07:39:33.802Z,937.11
2023-05-14T07:40:33.915Z,937.10
2023-05-14T07:41:33.842Z,937.10
2023-05-14T07:42:36.925Z,937.06
2023-05-14T07:43:33.873Z,937.09
2023-05-14T07:44:33.872Z,937.11
2023-05-14T07:45:33.927Z,937.14
2023-05-14T07:46:34.039Z,937.12
2023-05-14T07:47:33.966Z,937.13
2023-05-14T07:48:33.945Z,937.13
2023-05-14T07:49:33.929Z,937.16
2023-05-14T07:50:33.938Z,937.17
2023-05-14T07:51:33.957Z,937.22
2023-05-14T07:52:34.084Z,937.21
2023-05-14T07:53:33.976Z,937.21
2023-05-14T07:54:33.988Z,937.24
2023-05-14T07:55:34.009Z,937.27
2023-05-14T07:56:34.019Z,937.27
2023-05-14T07:57:34.128Z,937.29
2023-05-14T07:58:34.049Z,937.31
2023-05-14T07:59:34.052Z,937.30
2023-05-14T08:00:34.064Z,937.31
2023-05-14T08:01:34.098Z,937.29
2023-05-14T08:02:34.202Z,937.36
2023-05-14T08:03:34.269Z,937.36
2023-05-14T08:04:34.144Z,937.38
2023-05-14T08:05:34.124Z,937.39
2023-05-14T08:06:34.140Z,937.43
2023-05-14T08:07:34.148Z,937.42
2023-05-14T08:08:34.167Z,937.46
2023-05-14T08:09:34.279Z,937.50
2023-05-14T08:10:34.231Z,937.51
2023-05-14T08:11:34.221Z,937.47
2023-05-14T08:12:34.218Z,937.45
2023-05-14T08:13:34.224Z,937.40
2023-05-14T08:14:34.245Z,937.43
2023-05-14T08:15:34.248Z,937.44
2023-05-14T08:16:34.292Z,937.44
2023-05-14T08:17:34.374Z,937.42
2023-05-14T08:18:34.303Z,937.45
2023-05-14T08:19:34.306Z,937.46
2023-05-14T08:20:34.310Z,937.51
2023-05-14T08:21:34.329Z,937.56
2023-05-14T08:22:34.344Z,937.57
2023-05-14T08:23:34.362Z,937.58
2023-05-14T08:24:34.359Z,937.59
2023-05-14T08:25:34.382Z,937.62
2023-05-14T08:26:34.397Z,937.66
2023-05-14T08:27:34.509Z,937.65
2023-05-14T08:28:34.415Z,937.64
2023-05-14T08:29:34.424Z,937.69
2023-05-14T08:30:34.512Z,937.67
2023-05-14T08:31:34.456Z,937.69
2023-05-14T08:32:34.590Z,937.67
2023-05-14T08:33:34.500Z,937.69
2023-05-14T08:34:34.515Z,937.71
2023-05-14T08:35:34.511Z,937.76
2023-05-14T08:36:34.514Z,937.71
2023-05-14T08:37:34.537Z,937.75
2023-05-14T08:38:34.553Z,937.73
2023-05-14T08:39:34.549Z,937.76
2023-05-14T08:40:34.573Z,937.77
2023-05-14T08:41:34.571Z,937.80
2023-05-14T08:42:34.592Z,937.79
2023-05-14T08:43:34.708Z,937.78
2023-05-14T08:44:34.618Z,937.82
2023-05-14T08:45:34.628Z,937.85
2023-05-14T08:46:34.641Z,937.88
2023-05-14T08:47:34.696Z,937.88
2023-05-14T08:48:34.996Z,937.89
2023-05-14T08:49:34.689Z,937.91
2023-05-14T08:50:34.690Z,937.94
2023-05-14T08:51:34.704Z,937.93
2023-05-14T08:52:34.712Z,937.94
2023-05-14T08:53:34.724Z,937.98
2023-05-14T08:54:34.780Z,937.94
2023-05-14T08:55:34.752Z,937.96
2023-05-14T08:56:34.769Z,937.95
2023-05-14T08:57:34.765Z,937.95
2023-05-14T08:58:34.782Z,937.98
2023-05-14T08:59:34.890Z,937.96
2023-05-14T09:00:34.816Z,937.94
2023-05-14T09:01:34.861Z,937.93
2023-05-14T09:02:34.955Z,937.97
2023-05-14T09:03:34.912Z,937.96
2023-05-14T09:04:35.033Z,937.95
2023-05-14T09:05:34.993Z,937.96
2023-05-14T09:06:34.875Z,937.95
2023-05-14T09:07:34.890Z,938.00
2023-05-14T09:08:34.905Z,937.97
2023-05-14T09:09:34.923Z,937.95
2023-05-14T09:10:34.937Z,937.95
2023-05-14T09:11:35.052Z,937.95
2023-05-14T09:12:34.953Z,938.01
2023-05-14T09:13:34.960Z,937.99
2023-05-14T09:14:34.985Z,938.01
2023-05-14T09:15:34.995Z,938.03
2023-05-14T09:16:35.028Z,938.06
2023-05-14T09:17:35.167Z,938.06
2023-05-14T09:18:35.085Z,938.11
2023-05-14T09:19:35.044Z,938.14
2023-05-14T09:20:35.061Z,938.17
2023-05-14T09:21:35.078Z,938.23
2023-05-14T09:22:35.078Z,938.29
2023-05-14T09:23:35.099Z,938.29
2023-05-14T09:24:35.135Z,938.34
2023-05-14T09:25:35.113Z,938.29
2023-05-14T09:26:35.131Z,938.28
2023-05-14T09:27:35.153Z,938.25
2023-05-14T09:28:35.244Z,938.26
2023-05-14T09:29:35.156Z,938.27
2023-05-14T09:30:35.218Z,938.32
2023-05-14T09:31:35.258Z,938.29
2023-05-14T09:32:35.234Z,938.43
2023-05-14T09:33:35.223Z,938.44
2023-05-14T09:34:35.397Z,938.43
2023-05-14T09:35:35.231Z,938.45
2023-05-14T09:36:35.256Z,938.46
2023-05-14T09:37:35.276Z,938.41
2023-05-14T09:38:35.265Z,938.43
2023-05-14T09:39:35.290Z,938.42
2023-05-14T09:40:35.400Z,938.46
2023-05-14T09:41:35.311Z,938.49
2023-05-14T09:42:35.316Z,938.54
2023-05-14T09:43:35.331Z,938.55
2023-05-14T09:44:35.350Z,938.58
2023-05-14T09:45:35.365Z,938.57
2023-05-14T09:46:35.372Z,938.55
2023-05-14T09:47:35.454Z,938.58
2023-05-14T09:48:35.435Z,938.57
2023-05-14T09:49:35.414Z,938.61
2023-05-14T09:50:35.421Z,938.61
2023-05-14T09:51:35.426Z,938.62
2023-05-14T09:52:35.452Z,938.59
2023-05-14T09:53:35.487Z,938.62
2023-05-14T09:54:35.472Z,938.61
2023-05-14T09:55:35.483Z,938.65
2023-05-14T09:56:35.495Z,938.70
2023-05-14T09:57:35.648Z,938.71
2023-05-14T09:58:35.520Z,938.67
2023-05-14T09:59:35.534Z,938.70
2023-05-14T10:00:35.548Z,938.67
2023-05-14T10:01:35.610Z,938.67
2023-05-14T10:02:35.606Z,938.67
2023-05-14T10:03:35.572Z,938.70
2023-05-14T10:04:35.616Z,938.71
2023-05-14T10:05:35.604Z,938.67
2023-05-14T10:06:35.608Z,938.69
2023-05-14T10:07:35.729Z,938.70
2023-05-14T10:08:35.645Z,938.65
2023-05-14T10:09:35.666Z,938.70
2023-05-14T10:10:35.665Z,938.70
2023-05-14T10:11:35.687Z,938.73
2023-05-14T10:12:35.696Z,938.72
2023-05-14T10:13:35.802Z,938.75
2023-05-14T10:14:35.710Z,938.74
2023-05-14T10:15:35.733Z,938.76
2023-05-14T10:16:35.782Z,938.74
2023-05-14T10:17:35.829Z,938.75
2023-05-14T10:18:35.835Z,938.74
2023-05-14T10:19:35.865Z,938.75
2023-05-14T10:20:35.783Z,938.75
2023-05-14T10:21:35.801Z,938.79
2023-05-14T10:22:35.813Z,938.82
2023-05-14T10:23:35.817Z,938.78
2023-05-14T10:24:35.839Z,938.82
2023-05-14T10:25:35.960Z,938.79
2023-05-14T10:26:35.853Z,938.80
2023-05-14T10:27:35.873Z,938.78
2023-05-14T10:28:35.878Z,938.78
2023-05-14T10:29:35.891Z,938.74
2023-05-14T10:30:36.005Z,938.77
2023-05-14T10:31:35.939Z,938.77
2023-05-14T10:32:35.969Z,938.76
2023-05-14T10:33:35.942Z,938.78
2023-05-14T10:34:35.956Z,938.83
2023-05-14T10:35:35.963Z,938.83
2023-05-14T10:36:36.090Z,938.83
2023-05-14T10:37:35.986Z,938.78
2023-05-14T10:38:36.017Z,938.79
2023-05-14T10:39:36.027Z,938.81
2023-05-14T10:40:36.035Z,938.78
2023-05-14T10:41:36.159Z,938.76
2023-05-14T10:42:36.128Z,938.76
2023-05-14T10:43:36.069Z,938.79
2023-05-14T10:44:36.082Z,938.75
2023-05-14T10:45:36.088Z,938.81
2023-05-14T10:46:36.149Z,938.81
2023-05-14T10:47:36.176Z,938.82
2023-05-14T10:48:36.127Z,938.83
2023-05-14T10:49:43.532Z,938.83
2023-05-14T10:50:36.146Z,938.82
2023-05-14T10:51:36.263Z,938.86
2023-05-14T10:52:36.172Z,938.90
2023-05-14T10:53:36.291Z,938.87
2023-05-14T10:54:36.265Z,938.91
2023-05-14T10:55:36.218Z,938.93
2023-05-14T10:56:36.232Z,938.92
2023-05-14T10:57:36.250Z,938.94
2023-05-14T10:58:36.241Z,938.98
2023-05-14T10:59:36.355Z,938.98
2023-05-14T11:00:36.270Z,939.02
2023-05-14T11:01:36.323Z,939.01
2023-05-14T11:02:36.324Z,939.00
2023-05-14T11:03:36.346Z,939.10
2023-05-14T11:04:36.316Z,939.06
2023-05-14T11:05:36.434Z,939.06
2023-05-14T11:06:36.352Z,939.07
2023-05-14T11:07:36.355Z,939.07
2023-05-14T11:08:36.367Z,939.03
2023-05-14T11:09:36.391Z,939.02
2023-05-14T11:10:36.493Z,939.02
2023-05-14T11:11:36.420Z,938.99
2023-05-14T11:12:36.421Z,939.01
2023-05-14T11:13:36.541Z,938.99
2023-05-14T11:14:36.445Z,939.04
2023-05-14T11:15:36.555Z,939.01
2023-05-14T11:16:36.469Z,939.01
2023-05-14T11:18:36.508Z,939.03
2023-05-14T11:19:36.510Z,939.00
2023-05-14T11:20:36.539Z,939.00
2023-05-14T11:21:36.646Z,938.96
2023-05-14T11:22:36.573Z,938.97
2023-05-14T11:23:36.564Z,939.01
2023-05-14T11:24:36.578Z,938.95
2023-05-14T11:25:36.588Z,938.94
2023-05-14T11:26:36.624Z,938.94
2023-05-14T11:27:36.714Z,938.94
2023-05-14T11:28:36.613Z,938.95
2023-05-14T11:29:36.645Z,938.98
2023-05-14T11:30:36.637Z,938.95
2023-05-14T11:31:36.693Z,938.98
2023-05-14T11:32:36.686Z,938.98
2023-05-14T11:33:36.785Z,939.04
2023-05-14T11:34:36.685Z,939.07
2023-05-14T11:35:36.704Z,939.09
2023-05-14T11:36:36.722Z,939.06
2023-05-14T11:37:36.723Z,939.07
2023-05-14T11:38:36.743Z,939.11
2023-05-14T11:39:36.847Z,939.13
2023-05-14T11:40:36.761Z,939.13
2023-05-14T11:41:36.770Z,939.17
2023-05-14T11:42:36.797Z,939.19
2023-05-14T11:43:36.803Z,939.16
2023-05-14T11:44:36.905Z,939.15
2023-05-14T11:45:36.855Z,939.17
2023-05-14T11:46:36.946Z,939.18
2023-05-14T11:47:36.865Z,939.20
2023-05-14T11:48:36.866Z,939.17
2023-05-14T11:49:36.876Z,939.15
2023-05-14T11:50:36.981Z,939.16
2023-05-14T11:51:36.903Z,939.24
2023-05-14T11:52:36.913Z,939.23
2023-05-14T11:53:36.917Z,939.21
2023-05-14T11:54:36.937Z,939.22
2023-05-14T11:55:36.950Z,939.25
2023-05-14T11:56:37.058Z,939.27
2023-05-14T11:57:36.970Z,939.28
2023-05-14T11:58:36.977Z,939.28
2023-05-14T11:59:36.995Z,939.28
2023-05-14T12:00:37.004Z,939.34
2023-05-14T12:01:37.045Z,939.30
2023-05-14T12:02:37.096Z,939.32
2023-05-14T12:03:37.325Z,939.32
2023-05-14T12:04:37.131Z,939.39
2023-05-14T12:05:37.067Z,939.37
2023-05-14T12:06:37.070Z,939.38
2023-05-14T12:07:37.198Z,939.32
2023-05-14T12:08:37.102Z,939.33
2023-05-14T12:09:37.109Z,939.33
2023-05-14T12:10:37.118Z,939.32
2023-05-14T12:11:37.133Z,939.36
2023-05-14T12:12:37.459Z,939.36
2023-05-14T12:13:37.160Z,939.36
2023-05-14T12:14:37.169Z,939.37
2023-05-14T12:15:37.181Z,939.37
2023-05-14T12:16:38.424Z,939.40
2023-05-14T12:17:37.236Z,939.39
2023-05-14T12:18:37.486Z,939.36
2023-05-14T12:19:37.238Z,939.39
2023-05-14T12:20:37.246Z,939.40
2023-05-14T12:21:37.272Z,939.43
2023-05-14T12:22:37.280Z,939.42
2023-05-14T12:23:37.278Z,939.46
2023-05-14T12:24:37.397Z,939.50
2023-05-14T12:25:37.317Z,939.52
2023-05-14T12:26:37.323Z,939.50
2023-05-14T12:27:37.337Z,939.52
2023-05-14T12:28:38.556Z,939.48
2023-05-14T12:29:37.365Z,939.49